Milwaukee, WI (53219)

11:33 AM CDT on May 29, 2015 (GMT -0500)
Root Creek | | Change Station
CLOSE
Current Station
Personal Weather Station
Location: Milwaukee, WI
Elevation: 781 ft
Nearby Weather Stations

Elev 781 ft 42.97 °N, 88.00 °W | Updated 2 seconds ago

Mostly Cloudy
Mostly Cloudy
78.3 °F
Feels Like 80 °F
N
1.0
Wind Variable Wind from South
Gusts 4.0 mph

Today
High -- | Low -- °F
--% Chance of Precip.
Yesterday
High -- | Low -- °F
Precip. -- in
5:17 AM 8:21 PM
Waxing Gibbous, 84% visible
Pressure 29.99 in
Visibility 10.0 miles
Clouds Mostly Cloudy 3500 ft
Mostly Cloudy 4500 ft
Mostly Cloudy 20000 ft
Heat Index 80 °F
Dew Point 67 °F
Humidity 68%
Rainfall 0.00 in
Snow Depth Not available.
UV 5 out of 12
Pollen 4.60 out of 12
Air Quality Not available.
Flu Activity Sporadic
METAR KMKE 291552Z 22011KT 10SM BKN035 BKN045 BKN200 26/18 A3000 RMK AO2 SLP155 T02560178

More Conditions Fewer Conditions

Pressure 29.99 in
Visibility 10.0 miles
Clouds Mostly Cloudy 3500 ft
Mostly Cloudy 4500 ft
Mostly Cloudy 20000 ft
Heat Index 80 °F
Dew Point 67 °F
Humidity 68%
Rainfall 0.00 in
Snow Depth Not available.
UV 5 out of 12
Pollen 4.60 out of 12
Air Quality Not available.
Flu Activity Sporadic
METAR KMKE 291552Z 22011KT 10SM BKN035 BKN045 BKN200 26/18 A3000 RMK AO2 SLP155 T02560178

More Conditions Fewer Conditions

Nowcast | as of 11:08 am CDT on May 29, 2015

Scattered showers and thunderstorms will continue to develop over southern Wisconsin late this morning and early afternoon. The leading edge of the scattered showers and thunderstorms extended from around Monroe...to Milton to near East Troy...and were moving north at 25 mph. Brief heavy rainfall are likely with the showers and thunderstorms. Keep one eye on the sky this afternoon for approaching thunderstorms...and be ready to seek shelter.

×

10-Day Weather Forecast

Almanac

Astronomy

May. 29, 2015 Rise Set
Actual Time
Civil Twilight
Nautical Twilight
Astronomical Twilight
Moon
Length of Visible Light
Length of Day
Tomorrow will be .
, % of the Moon is Illuminated

Today's Extremes

State Highs State Lows

Community

WunderPhotos

Upload Photos

1,825,301 photos uploaded!

WunderBlogs® & News

Nearby

Air Quality

  Air Quality AQ Index Pollutant
Not available.

Snow Depth

Station Depth Elevation

Earthquake Activity

City Distance Mag. Time & Date
Minimum magnitude displayed is 2.5.

Coastal Water Temperatures

Place Temperature

Stations

Nearby Weather Stations

Station Location Temp. Windchill Dew Point Humidity Wind Precip. Elev Updated Type